sensor_id;sensor_type;location;lat;lon;timestamp;P1;durP1;ratioP1;P2;durP2;ratioP2
2994;SDS011;35277;49.890;8.222;2023-04-15T00:01:42;1.00;;;0.50;;
2994;SDS011;35277;49.890;8.222;2023-04-15T00:04:10;1.00;;;0.53;;
2994;SDS011;35277;49.890;8.222;2023-04-15T00:06:38;1.30;;;0.97;;
2994;SDS011;35277;49.890;8.222;2023-04-15T00:09:06;0.90;;;0.40;;
2994;SDS011;35277;49.890;8.222;2023-04-15T00:11:35;1.20;;;0.77;;
2994;SDS011;35277;49.890;8.222;2023-04-15T00:14:03;1.30;;;0.60;;
2994;SDS011;35277;49.890;8.222;2023-04-15T00:16:31;1.00;;;0.40;;
2994;SDS011;35277;49.890;8.222;2023-04-15T00:18:59;1.73;;;1.23;;
2994;SDS011;35277;49.890;8.222;2023-04-15T00:21:27;1.13;;;0.60;;
2994;SDS011;35277;49.890;8.222;2023-04-15T00:23:55;1.00;;;0.40;;
2994;SDS011;35277;49.890;8.222;2023-04-15T00:26:22;1.00;;;0.40;;
2994;SDS011;35277;49.890;8.222;2023-04-15T00:28:52;2.60;;;0.90;;
2994;SDS011;35277;49.890;8.222;2023-04-15T00:31:19;1.00;;;0.40;;
2994;SDS011;35277;49.890;8.222;2023-04-15T00:33:48;1.00;;;0.40;;
2994;SDS011;35277;49.890;8.222;2023-04-15T00:36:15;1.00;;;0.40;;
2994;SDS011;35277;49.890;8.222;2023-04-15T00:38:43;1.00;;;0.50;;
2994;SDS011;35277;49.890;8.222;2023-04-15T00:41:11;1.10;;;0.50;;
2994;SDS011;35277;49.890;8.222;2023-04-15T00:43:39;1.00;;;0.60;;
2994;SDS011;35277;49.890;8.222;2023-04-15T00:46:08;0.90;;;0.40;;
2994;SDS011;35277;49.890;8.222;2023-04-15T00:48:39;1.00;;;0.50;;
2994;SDS011;35277;49.890;8.222;2023-04-15T00:51:07;1.00;;;0.40;;
2994;SDS011;35277;49.890;8.222;2023-04-15T00:53:35;1.10;;;0.50;;
2994;SDS011;35277;49.890;8.222;2023-04-15T00:56:04;1.10;;;0.60;;
2994;SDS011;35277;49.890;8.222;2023-04-15T00:58:32;1.00;;;0.40;;
2994;SDS011;35277;49.890;8.222;2023-04-15T01:01:00;1.00;;;0.50;;
2994;SDS011;35277;49.890;8.222;2023-04-15T01:03:29;0.90;;;0.40;;
2994;SDS011;35277;49.890;8.222;2023-04-15T01:05:57;0.90;;;0.40;;
2994;SDS011;35277;49.890;8.222;2023-04-15T01:08:29;0.90;;;0.37;;
2994;SDS011;35277;49.890;8.222;2023-04-15T01:10:57;1.00;;;0.40;;
2994;SDS011;35277;49.890;8.222;2023-04-15T01:13:28;1.57;;;0.97;;
2994;SDS011;35277;49.890;8.222;2023-04-15T01:15:57;1.00;;;0.50;;
2994;SDS011;35277;49.890;8.222;2023-04-15T01:18:25;1.43;;;1.03;;
2994;SDS011;35277;49.890;8.222;2023-04-15T01:20:55;0.90;;;0.40;;
2994;SDS011;35277;49.890;8.222;2023-04-15T01:23:23;0.90;;;0.40;;
2994;SDS011;35277;49.890;8.222;2023-04-15T01:25:52;0.90;;;0.40;;
2994;SDS011;35277;49.890;8.222;2023-04-15T01:28:20;1.10;;;0.70;;
2994;SDS011;35277;49.890;8.222;2023-04-15T01:30:48;1.00;;;0.40;;
2994;SDS011;35277;49.890;8.222;2023-04-15T01:33:16;0.93;;;0.40;;
2994;SDS011;35277;49.890;8.222;2023-04-15T01:35:45;1.10;;;0.50;;
2994;SDS011;35277;49.890;8.222;2023-04-15T01:38:13;1.00;;;0.40;;
2994;SDS011;35277;49.890;8.222;2023-04-15T01:40:43;1.20;;;0.50;;
2994;SDS011;35277;49.890;8.222;2023-04-15T01:43:12;1.10;;;0.60;;
2994;SDS011;35277;49.890;8.222;2023-04-15T01:45:41;1.00;;;0.40;;
2994;SDS011;35277;49.890;8.222;2023-04-15T01:48:08;1.10;;;0.50;;
2994;SDS011;35277;49.890;8.222;2023-04-15T01:50:37;0.90;;;0.40;;
2994;SDS011;35277;49.890;8.222;2023-04-15T01:53:05;0.90;;;0.40;;
2994;SDS011;35277;49.890;8.222;2023-04-15T01:55:33;0.90;;;0.30;;
2994;SDS011;35277;49.890;8.222;2023-04-15T01:58:00;0.90;;;0.30;;
2994;SDS011;35277;49.890;8.222;2023-04-15T02:00:29;1.53;;;0.83;;
2994;SDS011;35277;49.890;8.222;2023-04-15T02:02:58;1.63;;;1.37;;
2994;SDS011;35277;49.890;8.222;2023-04-15T02:05:26;0.93;;;0.40;;
2994;SDS011;35277;49.890;8.222;2023-04-15T02:07:54;1.00;;;0.40;;
2994;SDS011;35277;49.890;8.222;2023-04-15T02:10:21;1.00;;;0.40;;
2994;SDS011;35277;49.890;8.222;2023-04-15T02:12:49;1.00;;;0.40;;
2994;SDS011;35277;49.890;8.222;2023-04-15T02:15:17;1.00;;;0.50;;
2994;SDS011;35277;49.890;8.222;2023-04-15T02:17:49;0.90;;;0.40;;
2994;SDS011;35277;49.890;8.222;2023-04-15T02:20:18;1.00;;;0.60;;
2994;SDS011;35277;49.890;8.222;2023-04-15T02:22:47;0.90;;;0.40;;
2994;SDS011;35277;49.890;8.222;2023-04-15T02:25:15;1.00;;;0.40;;
2994;SDS011;35277;49.890;8.222;2023-04-15T02:27:43;1.00;;;0.50;;
2994;SDS011;35277;49.890;8.222;2023-04-15T02:30:11;0.97;;;0.40;;
2994;SDS011;35277;49.890;8.222;2023-04-15T02:32:39;1.00;;;0.43;;
2994;SDS011;35277;49.890;8.222;2023-04-15T02:35:11;1.10;;;0.60;;
2994;SDS011;35277;49.890;8.222;2023-04-15T02:37:39;1.00;;;0.40;;
2994;SDS011;35277;49.890;8.222;2023-04-15T02:40:10;1.00;;;0.40;;
2994;SDS011;35277;49.890;8.222;2023-04-15T02:42:38;1.00;;;0.40;;
2994;SDS011;35277;49.890;8.222;2023-04-15T02:45:10;1.00;;;0.40;;
2994;SDS011;35277;49.890;8.222;2023-04-15T02:47:39;1.13;;;0.50;;
2994;SDS011;35277;49.890;8.222;2023-04-15T02:50:09;0.90;;;0.40;;
2994;SDS011;35277;49.890;8.222;2023-04-15T02:52:41;1.00;;;0.50;;
2994;SDS011;35277;49.890;8.222;2023-04-15T02:55:09;1.00;;;0.40;;
2994;SDS011;35277;49.890;8.222;2023-04-15T02:57:37;1.00;;;0.50;;
2994;SDS011;35277;49.890;8.222;2023-04-15T03:00:08;1.20;;;0.83;;
2994;SDS011;35277;49.890;8.222;2023-04-15T03:02:39;1.00;;;0.40;;
2994;SDS011;35277;49.890;8.222;2023-04-15T03:05:11;1.00;;;0.70;;
2994;SDS011;35277;49.890;8.222;2023-04-15T03:07:46;0.90;;;0.40;;
2994;SDS011;35277;49.890;8.222;2023-04-15T03:10:14;0.90;;;0.30;;
2994;SDS011;35277;49.890;8.222;2023-04-15T03:12:42;0.90;;;0.30;;
2994;SDS011;35277;49.890;8.222;2023-04-15T03:15:14;1.30;;;1.13;;
2994;SDS011;35277;49.890;8.222;2023-04-15T03:17:47;0.97;;;0.40;;
2994;SDS011;35277;49.890;8.222;2023-04-15T03:20:17;0.97;;;0.40;;
2994;SDS011;35277;49.890;8.222;2023-04-15T03:22:46;1.00;;;0.50;;
2994;SDS011;35277;49.890;8.222;2023-04-15T03:25:14;0.97;;;0.40;;
2994;SDS011;35277;49.890;8.222;2023-04-15T03:27:42;0.97;;;0.40;;
2994;SDS011;35277;49.890;8.222;2023-04-15T03:30:12;1.10;;;0.67;;
2994;SDS011;35277;49.890;8.222;2023-04-15T03:32:40;1.00;;;0.40;;
2994;SDS011;35277;49.890;8.222;2023-04-15T03:35:08;0.97;;;0.40;;
2994;SDS011;35277;49.890;8.222;2023-04-15T03:37:37;1.00;;;0.40;;
2994;SDS011;35277;49.890;8.222;2023-04-15T03:40:05;0.97;;;0.40;;
2994;SDS011;35277;49.890;8.222;2023-04-15T03:42:34;0.97;;;0.40;;
2994;SDS011;35277;49.890;8.222;2023-04-15T03:45:02;1.00;;;0.40;;
2994;SDS011;35277;49.890;8.222;2023-04-15T03:47:31;1.00;;;0.40;;
2994;SDS011;35277;49.890;8.222;2023-04-15T03:49:58;1.10;;;0.60;;
2994;SDS011;35277;49.890;8.222;2023-04-15T03:52:26;1.00;;;0.50;;
2994;SDS011;35277;49.890;8.222;2023-04-15T03:54:55;0.93;;;0.40;;
2994;SDS011;35277;49.890;8.222;2023-04-15T03:57:23;1.00;;;0.47;;
2994;SDS011;35277;49.890;8.222;2023-04-15T03:59:51;1.10;;;0.60;;
2994;SDS011;35277;49.890;8.222;2023-04-15T04:02:19;1.00;;;0.43;;
2994;SDS011;35277;49.890;8.222;2023-04-15T04:04:48;1.63;;;0.67;;
2994;SDS011;35277;49.890;8.222;2023-04-15T04:07:16;1.00;;;0.60;;
2994;SDS011;35277;49.890;8.222;2023-04-15T04:09:44;1.00;;;0.50;;
2994;SDS011;35277;49.890;8.222;2023-04-15T04:12:14;0.97;;;0.40;;
2994;SDS011;35277;49.890;8.222;2023-04-15T04:14:42;1.00;;;0.40;;
2994;SDS011;35277;49.890;8.222;2023-04-15T04:17:09;1.00;;;0.40;;
2994;SDS011;35277;49.890;8.222;2023-04-15T04:19:37;0.93;;;0.40;;
2994;SDS011;35277;49.890;8.222;2023-04-15T04:22:05;1.00;;;0.40;;
2994;SDS011;35277;49.890;8.222;2023-04-15T04:24:33;1.10;;;0.73;;
2994;SDS011;35277;49.890;8.222;2023-04-15T04:27:00;0.97;;;0.40;;
2994;SDS011;35277;49.890;8.222;2023-04-15T04:29:29;2.70;;;0.97;;
2994;SDS011;35277;49.890;8.222;2023-04-15T04:31:57;0.97;;;0.50;;
2994;SDS011;35277;49.890;8.222;2023-04-15T04:34:25;0.97;;;0.40;;
2994;SDS011;35277;49.890;8.222;2023-04-15T04:36:53;1.00;;;0.50;;
2994;SDS011;35277;49.890;8.222;2023-04-15T04:39:21;1.20;;;0.60;;
2994;SDS011;35277;49.890;8.222;2023-04-15T04:41:49;1.00;;;0.50;;
2994;SDS011;35277;49.890;8.222;2023-04-15T04:44:17;1.40;;;0.57;;
2994;SDS011;35277;49.890;8.222;2023-04-15T04:46:46;0.90;;;0.30;;
2994;SDS011;35277;49.890;8.222;2023-04-15T04:49:14;1.13;;;0.93;;
2994;SDS011;35277;49.890;8.222;2023-04-15T04:51:42;0.90;;;0.40;;
2994;SDS011;35277;49.890;8.222;2023-04-15T04:54:09;1.87;;;0.53;;
2994;SDS011;35277;49.890;8.222;2023-04-15T04:56:37;1.00;;;0.40;;
2994;SDS011;35277;49.890;8.222;2023-04-15T04:59:05;1.00;;;0.40;;
2994;SDS011;35277;49.890;8.222;2023-04-15T05:01:33;0.90;;;0.30;;
2994;SDS011;35277;49.890;8.222;2023-04-15T05:04:02;1.00;;;0.40;;
2994;SDS011;35277;49.890;8.222;2023-04-15T05:06:31;0.90;;;0.40;;
2994;SDS011;35277;49.890;8.222;2023-04-15T05:08:59;1.00;;;0.57;;
2994;SDS011;35277;49.890;8.222;2023-04-15T05:11:27;1.00;;;0.50;;
2994;SDS011;35277;49.890;8.222;2023-04-15T05:13:54;0.90;;;0.30;;
2994;SDS011;35277;49.890;8.222;2023-04-15T05:16:23;0.97;;;0.40;;
2994;SDS011;35277;49.890;8.222;2023-04-15T05:18:51;0.90;;;0.40;;
2994;SDS011;35277;49.890;8.222;2023-04-15T05:21:20;1.00;;;0.40;;
2994;SDS011;35277;49.890;8.222;2023-04-15T05:23:47;1.90;;;1.50;;
2994;SDS011;35277;49.890;8.222;2023-04-15T05:26:15;1.10;;;0.60;;
2994;SDS011;35277;49.890;8.222;2023-04-15T05:28:43;1.63;;;0.60;;
2994;SDS011;35277;49.890;8.222;2023-04-15T05:31:11;1.00;;;0.50;;
2994;SDS011;35277;49.890;8.222;2023-04-15T05:33:39;5.57;;;0.70;;
2994;SDS011;35277;49.890;8.222;2023-04-15T05:36:07;1.00;;;0.47;;
2994;SDS011;35277;49.890;8.222;2023-04-15T05:38:37;1.00;;;0.40;;
2994;SDS011;35277;49.890;8.222;2023-04-15T05:41:04;1.00;;;0.40;;
2994;SDS011;35277;49.890;8.222;2023-04-15T05:43:32;1.00;;;0.40;;
2994;SDS011;35277;49.890;8.222;2023-04-15T05:46:00;1.57;;;1.20;;
2994;SDS011;35277;49.890;8.222;2023-04-15T05:48:28;1.00;;;0.40;;
2994;SDS011;35277;49.890;8.222;2023-04-15T05:50:55;1.00;;;0.57;;
2994;SDS011;35277;49.890;8.222;2023-04-15T05:53:23;1.00;;;0.43;;
2994;SDS011;35277;49.890;8.222;2023-04-15T05:55:53;1.00;;;0.40;;
2994;SDS011;35277;49.890;8.222;2023-04-15T05:58:20;1.00;;;0.40;;
2994;SDS011;35277;49.890;8.222;2023-04-15T06:00:48;1.00;;;0.40;;
2994;SDS011;35277;49.890;8.222;2023-04-15T06:03:16;1.10;;;0.60;;
2994;SDS011;35277;49.890;8.222;2023-04-15T06:05:44;0.93;;;0.40;;
2994;SDS011;35277;49.890;8.222;2023-04-15T06:08:12;1.37;;;1.27;;
2994;SDS011;35277;49.890;8.222;2023-04-15T06:10:40;1.00;;;0.40;;
2994;SDS011;35277;49.890;8.222;2023-04-15T06:13:09;1.00;;;0.40;;
2994;SDS011;35277;49.890;8.222;2023-04-15T06:15:36;1.00;;;0.40;;
2994;SDS011;35277;49.890;8.222;2023-04-15T06:18:04;1.00;;;0.53;;
2994;SDS011;35277;49.890;8.222;2023-04-15T06:20:32;1.00;;;0.60;;
2994;SDS011;35277;49.890;8.222;2023-04-15T06:23:00;1.00;;;0.57;;
2994;SDS011;35277;49.890;8.222;2023-04-15T06:25:27;1.10;;;0.60;;
2994;SDS011;35277;49.890;8.222;2023-04-15T06:27:55;0.93;;;0.33;;
2994;SDS011;35277;49.890;8.222;2023-04-15T06:30:24;1.00;;;0.50;;
2994;SDS011;35277;49.890;8.222;2023-04-15T06:32:52;1.40;;;1.17;;
2994;SDS011;35277;49.890;8.222;2023-04-15T06:35:21;1.27;;;0.83;;
2994;SDS011;35277;49.890;8.222;2023-04-15T06:37:48;1.00;;;0.40;;
2994;SDS011;35277;49.890;8.222;2023-04-15T06:40:16;1.10;;;0.50;;
2994;SDS011;35277;49.890;8.222;2023-04-15T06:42:44;1.00;;;0.40;;
2994;SDS011;35277;49.890;8.222;2023-04-15T06:45:14;2.23;;;0.77;;
2994;SDS011;35277;49.890;8.222;2023-04-15T06:47:43;1.00;;;0.40;;
2994;SDS011;35277;49.890;8.222;2023-04-15T06:50:11;1.40;;;1.03;;
2994;SDS011;35277;49.890;8.222;2023-04-15T06:52:39;1.00;;;0.40;;
2994;SDS011;35277;49.890;8.222;2023-04-15T06:55:07;0.90;;;0.40;;
2994;SDS011;35277;49.890;8.222;2023-04-15T06:57:35;1.00;;;0.43;;
2994;SDS011;35277;49.890;8.222;2023-04-15T07:00:03;1.00;;;0.50;;
2994;SDS011;35277;49.890;8.222;2023-04-15T07:02:32;1.00;;;0.47;;
2994;SDS011;35277;49.890;8.222;2023-04-15T07:05:01;0.90;;;0.40;;
2994;SDS011;35277;49.890;8.222;2023-04-15T07:07:29;1.00;;;0.50;;
2994;SDS011;35277;49.890;8.222;2023-04-15T07:09:57;1.00;;;0.60;;
2994;SDS011;35277;49.890;8.222;2023-04-15T07:12:27;1.10;;;0.80;;
2994;SDS011;35277;49.890;8.222;2023-04-15T07:14:54;0.90;;;0.40;;
2994;SDS011;35277;49.890;8.222;2023-04-15T07:17:22;0.97;;;0.47;;
2994;SDS011;35277;49.890;8.222;2023-04-15T07:19:50;1.00;;;0.70;;
2994;SDS011;35277;49.890;8.222;2023-04-15T07:22:19;1.00;;;0.60;;
2994;SDS011;35277;49.890;8.222;2023-04-15T07:24:47;1.00;;;0.50;;
2994;SDS011;35277;49.890;8.222;2023-04-15T07:27:15;1.00;;;0.40;;
2994;SDS011;35277;49.890;8.222;2023-04-15T07:29:43;0.97;;;0.40;;
2994;SDS011;35277;49.890;8.222;2023-04-15T07:32:10;1.43;;;1.33;;
2994;SDS011;35277;49.890;8.222;2023-04-15T07:34:38;2.20;;;2.00;;
2994;SDS011;35277;49.890;8.222;2023-04-15T07:37:06;3.27;;;2.87;;
2994;SDS011;35277;49.890;8.222;2023-04-15T07:39:35;1.00;;;0.50;;
2994;SDS011;35277;49.890;8.222;2023-04-15T07:42:03;1.43;;;0.73;;
2994;SDS011;35277;49.890;8.222;2023-04-15T07:44:31;1.00;;;0.50;;
2994;SDS011;35277;49.890;8.222;2023-04-15T07:46:59;1.10;;;0.50;;
2994;SDS011;35277;49.890;8.222;2023-04-15T07:49:28;3.40;;;1.00;;
2994;SDS011;35277;49.890;8.222;2023-04-15T07:51:56;1.30;;;0.83;;
2994;SDS011;35277;49.890;8.222;2023-04-15T07:54:25;1.47;;;1.03;;
2994;SDS011;35277;49.890;8.222;2023-04-15T07:56:54;0.97;;;0.40;;
2994;SDS011;35277;49.890;8.222;2023-04-15T07:59:22;1.00;;;0.60;;
2994;SDS011;35277;49.890;8.222;2023-04-15T08:01:51;1.10;;;0.60;;
2994;SDS011;35277;49.890;8.222;2023-04-15T08:04:19;6.77;;;1.23;;
2994;SDS011;35277;49.890;8.222;2023-04-15T08:06:47;1.10;;;0.70;;
2994;SDS011;35277;49.890;8.222;2023-04-15T08:09:15;1.00;;;0.50;;
2994;SDS011;35277;49.890;8.222;2023-04-15T08:11:43;1.23;;;0.83;;
2994;SDS011;35277;49.890;8.222;2023-04-15T08:14:12;2.17;;;0.80;;
2994;SDS011;35277;49.890;8.222;2023-04-15T08:16:40;1.40;;;0.70;;
2994;SDS011;35277;49.890;8.222;2023-04-15T08:19:07;1.63;;;0.80;;
2994;SDS011;35277;49.890;8.222;2023-04-15T08:21:35;2.70;;;1.07;;
2994;SDS011;35277;49.890;8.222;2023-04-15T08:24:03;1.00;;;0.40;;
2994;SDS011;35277;49.890;8.222;2023-04-15T08:26:32;2.35;;;2.10;;
2994;SDS011;35277;49.890;8.222;2023-04-15T08:28:59;1.50;;;0.83;;
2994;SDS011;35277;49.890;8.222;2023-04-15T08:31:29;1.00;;;0.60;;
2994;SDS011;35277;49.890;8.222;2023-04-15T08:33:57;1.40;;;0.63;;
2994;SDS011;35277;49.890;8.222;2023-04-15T08:36:25;1.10;;;0.50;;
2994;SDS011;35277;49.890;8.222;2023-04-15T08:38:53;1.10;;;0.50;;
2994;SDS011;35277;49.890;8.222;2023-04-15T08:41:22;1.10;;;0.80;;
2994;SDS011;35277;49.890;8.222;2023-04-15T08:43:52;1.30;;;1.07;;
2994;SDS011;35277;49.890;8.222;2023-04-15T08:46:20;1.67;;;1.20;;
2994;SDS011;35277;49.890;8.222;2023-04-15T08:48:50;1.40;;;0.83;;
2994;SDS011;35277;49.890;8.222;2023-04-15T08:51:22;1.10;;;0.70;;
2994;SDS011;35277;49.890;8.222;2023-04-15T08:53:52;1.00;;;0.50;;
2994;SDS011;35277;49.890;8.222;2023-04-15T08:56:22;1.03;;;0.67;;
2994;SDS011;35277;49.890;8.222;2023-04-15T08:58:51;1.00;;;0.40;;
2994;SDS011;35277;49.890;8.222;2023-04-15T09:01:20;1.30;;;1.17;;
2994;SDS011;35277;49.890;8.222;2023-04-15T09:03:48;1.00;;;0.50;;
2994;SDS011;35277;49.890;8.222;2023-04-15T09:06:18;1.30;;;0.60;;
2994;SDS011;35277;49.890;8.222;2023-04-15T09:08:46;1.00;;;0.40;;
2994;SDS011;35277;49.890;8.222;2023-04-15T09:11:14;1.10;;;0.53;;
2994;SDS011;35277;49.890;8.222;2023-04-15T09:13:45;0.90;;;0.40;;
2994;SDS011;35277;49.890;8.222;2023-04-15T09:16:13;1.00;;;0.40;;
2994;SDS011;35277;49.890;8.222;2023-04-15T09:18:41;2.53;;;1.47;;
2994;SDS011;35277;49.890;8.222;2023-04-15T09:21:10;0.90;;;0.40;;
2994;SDS011;35277;49.890;8.222;2023-04-15T09:23:41;1.10;;;0.50;;
2994;SDS011;35277;49.890;8.222;2023-04-15T09:26:29;1.37;;;0.70;;
2994;SDS011;35277;49.890;8.222;2023-04-15T09:29:01;1.10;;;0.50;;
2994;SDS011;35277;49.890;8.222;2023-04-15T09:31:30;1.00;;;0.50;;
2994;SDS011;35277;49.890;8.222;2023-04-15T09:33:58;0.93;;;0.40;;
2994;SDS011;35277;49.890;8.222;2023-04-15T09:36:26;1.97;;;1.73;;
2994;SDS011;35277;49.890;8.222;2023-04-15T09:38:57;1.10;;;0.53;;
2994;SDS011;35277;49.890;8.222;2023-04-15T09:41:26;1.00;;;0.50;;
2994;SDS011;35277;49.890;8.222;2023-04-15T09:43:54;1.00;;;0.50;;
2994;SDS011;35277;49.890;8.222;2023-04-15T09:49:08;1.43;;;1.17;;
2994;SDS011;35277;49.890;8.222;2023-04-15T09:51:36;1.00;;;0.50;;
2994;SDS011;35277;49.890;8.222;2023-04-15T09:54:06;1.00;;;0.50;;
2994;SDS011;35277;49.890;8.222;2023-04-15T09:56:34;1.50;;;0.90;;
2994;SDS011;35277;49.890;8.222;2023-04-15T09:59:03;1.00;;;0.40;;
2994;SDS011;35277;49.890;8.222;2023-04-15T10:01:32;1.00;;;0.40;;
2994;SDS011;35277;49.890;8.222;2023-04-15T10:04:01;1.00;;;0.60;;
2994;SDS011;35277;49.890;8.222;2023-04-15T10:06:31;1.00;;;0.40;;
2994;SDS011;35277;49.890;8.222;2023-04-15T10:09:00;1.00;;;0.63;;
2994;SDS011;35277;49.890;8.222;2023-04-15T10:11:30;1.00;;;0.60;;
2994;SDS011;35277;49.890;8.222;2023-04-15T10:13:58;2.30;;;1.27;;
2994;SDS011;35277;49.890;8.222;2023-04-15T10:16:27;1.10;;;0.50;;
2994;SDS011;35277;49.890;8.222;2023-04-15T10:18:59;1.10;;;0.60;;
2994;SDS011;35277;49.890;8.222;2023-04-15T10:21:29;1.00;;;0.40;;
2994;SDS011;35277;49.890;8.222;2023-04-15T10:23:57;28.20;;;16.50;;
2994;SDS011;35277;49.890;8.222;2023-04-15T10:26:25;18.97;;;17.10;;
2994;SDS011;35277;49.890;8.222;2023-04-15T10:28:54;20.10;;;16.07;;
2994;SDS011;35277;49.890;8.222;2023-04-15T10:31:25;38.43;;;24.20;;
2994;SDS011;35277;49.890;8.222;2023-04-15T10:33:53;15.70;;;14.10;;
2994;SDS011;35277;49.890;8.222;2023-04-15T10:36:21;37.93;;;28.33;;
2994;SDS011;35277;49.890;8.222;2023-04-15T10:38:49;21.73;;;20.03;;
2994;SDS011;35277;49.890;8.222;2023-04-15T10:41:18;19.50;;;17.13;;
2994;SDS011;35277;49.890;8.222;2023-04-15T10:43:48;27.53;;;17.17;;
2994;SDS011;35277;49.890;8.222;2023-04-15T10:46:33;35.87;;;15.53;;
2994;SDS011;35277;49.890;8.222;2023-04-15T10:49:06;19.93;;;18.03;;
2994;SDS011;35277;49.890;8.222;2023-04-15T10:51:36;23.67;;;13.57;;
2994;SDS011;35277;49.890;8.222;2023-04-15T10:54:07;14.23;;;11.33;;
2994;SDS011;35277;49.890;8.222;2023-04-15T10:56:40;17.97;;;12.03;;
2994;SDS011;35277;49.890;8.222;2023-04-15T10:59:08;17.00;;;15.60;;
2994;SDS011;35277;49.890;8.222;2023-04-15T11:01:50;22.00;;;10.67;;
2994;SDS011;35277;49.890;8.222;2023-04-15T11:07:34;14.77;;;12.00;;
2994;SDS011;35277;49.890;8.222;2023-04-15T11:10:02;16.37;;;10.67;;
2994;SDS011;35277;49.890;8.222;2023-04-15T11:12:51;14.00;;;11.17;;
2994;SDS011;35277;49.890;8.222;2023-04-15T11:15:27;19.33;;;8.23;;
2994;SDS011;35277;49.890;8.222;2023-04-15T11:17:57;20.67;;;9.50;;
2994;SDS011;35277;49.890;8.222;2023-04-15T11:20:34;5.07;;;3.87;;
2994;SDS011;35277;49.890;8.222;2023-04-15T11:23:03;5.73;;;5.13;;
2994;SDS011;35277;49.890;8.222;2023-04-15T11:25:40;4.23;;;3.83;;
2994;SDS011;35277;49.890;8.222;2023-04-15T11:28:09;5.77;;;4.77;;
2994;SDS011;35277;49.890;8.222;2023-04-15T11:30:39;1.30;;;1.10;;
2994;SDS011;35277;49.890;8.222;2023-04-15T11:33:10;5.63;;;5.30;;
2994;SDS011;35277;49.890;8.222;2023-04-15T11:35:39;4.23;;;3.47;;
2994;SDS011;35277;49.890;8.222;2023-04-15T11:38:07;5.20;;;4.60;;
2994;SDS011;35277;49.890;8.222;2023-04-15T11:40:37;5.97;;;4.37;;
2994;SDS011;35277;49.890;8.222;2023-04-15T11:43:05;3.73;;;2.83;;
2994;SDS011;35277;49.890;8.222;2023-04-15T11:45:34;6.13;;;3.00;;
2994;SDS011;35277;49.890;8.222;2023-04-15T11:48:07;3.50;;;3.20;;
2994;SDS011;35277;49.890;8.222;2023-04-15T11:50:37;10.63;;;5.30;;
2994;SDS011;35277;49.890;8.222;2023-04-15T11:53:07;4.33;;;4.10;;
2994;SDS011;35277;49.890;8.222;2023-04-15T11:55:42;3.30;;;2.30;;
2994;SDS011;35277;49.890;8.222;2023-04-15T11:58:12;3.37;;;3.17;;
2994;SDS011;35277;49.890;8.222;2023-04-15T12:00:45;5.50;;;2.67;;
2994;SDS011;35277;49.890;8.222;2023-04-15T12:03:20;7.43;;;3.20;;
2994;SDS011;35277;49.890;8.222;2023-04-15T12:06:03;4.70;;;3.10;;
2994;SDS011;35277;49.890;8.222;2023-04-15T12:08:47;2.67;;;2.23;;
2994;SDS011;35277;49.890;8.222;2023-04-15T12:11:19;4.87;;;1.97;;
2994;SDS011;35277;49.890;8.222;2023-04-15T12:13:48;2.90;;;2.07;;
2994;SDS011;35277;49.890;8.222;2023-04-15T12:16:16;7.47;;;4.07;;
2994;SDS011;35277;49.890;8.222;2023-04-15T12:18:45;5.90;;;3.17;;
2994;SDS011;35277;49.890;8.222;2023-04-15T12:21:14;2.73;;;2.53;;
2994;SDS011;35277;49.890;8.222;2023-04-15T12:23:47;3.87;;;3.40;;
2994;SDS011;35277;49.890;8.222;2023-04-15T12:26:16;9.20;;;3.37;;
2994;SDS011;35277;49.890;8.222;2023-04-15T12:28:44;2.50;;;2.10;;
2994;SDS011;35277;49.890;8.222;2023-04-15T12:31:13;5.50;;;4.63;;
2994;SDS011;35277;49.890;8.222;2023-04-15T12:33:41;7.63;;;2.97;;
2994;SDS011;35277;49.890;8.222;2023-04-15T12:36:08;3.00;;;1.50;;
2994;SDS011;35277;49.890;8.222;2023-04-15T12:38:37;3.90;;;1.97;;
2994;SDS011;35277;49.890;8.222;2023-04-15T12:41:05;3.53;;;3.23;;
2994;SDS011;35277;49.890;8.222;2023-04-15T12:43:33;2.13;;;1.87;;
2994;SDS011;35277;49.890;8.222;2023-04-15T12:46:01;1.37;;;1.23;;
2994;SDS011;35277;49.890;8.222;2023-04-15T12:48:30;10.77;;;4.40;;
2994;SDS011;35277;49.890;8.222;2023-04-15T12:50:58;2.67;;;2.47;;
2994;SDS011;35277;49.890;8.222;2023-04-15T12:53:26;4.70;;;1.73;;
2994;SDS011;35277;49.890;8.222;2023-04-15T12:55:55;2.03;;;1.80;;
2994;SDS011;35277;49.890;8.222;2023-04-15T12:58:23;2.20;;;1.50;;
2994;SDS011;35277;49.890;8.222;2023-04-15T13:00:50;1.67;;;1.57;;
2994;SDS011;35277;49.890;8.222;2023-04-15T13:03:18;2.50;;;2.10;;
2994;SDS011;35277;49.890;8.222;2023-04-15T13:05:46;6.73;;;1.93;;
2994;SDS011;35277;49.890;8.222;2023-04-15T13:08:14;1.13;;;0.97;;
2994;SDS011;35277;49.890;8.222;2023-04-15T13:10:42;1.27;;;1.07;;
2994;SDS011;35277;49.890;8.222;2023-04-15T13:13:11;1.20;;;0.87;;
2994;SDS011;35277;49.890;8.222;2023-04-15T13:15:38;1.73;;;1.00;;
2994;SDS011;35277;49.890;8.222;2023-04-15T13:18:06;1.30;;;1.17;;
2994;SDS011;35277;49.890;8.222;2023-04-15T13:20:34;13.60;;;2.43;;
2994;SDS011;35277;49.890;8.222;2023-04-15T13:23:02;1.10;;;0.73;;
2994;SDS011;35277;49.890;8.222;2023-04-15T13:25:30;2.00;;;1.87;;
2994;SDS011;35277;49.890;8.222;2023-04-15T13:27:58;3.67;;;1.53;;
2994;SDS011;35277;49.890;8.222;2023-04-15T13:30:27;1.30;;;1.10;;
2994;SDS011;35277;49.890;8.222;2023-04-15T13:32:56;6.63;;;1.53;;
2994;SDS011;35277;49.890;8.222;2023-04-15T13:35:24;7.80;;;1.93;;
2994;SDS011;35277;49.890;8.222;2023-04-15T13:37:52;8.73;;;1.13;;
2994;SDS011;35277;49.890;8.222;2023-04-15T13:40:20;1.23;;;0.90;;
2994;SDS011;35277;49.890;8.222;2023-04-15T13:42:48;1.40;;;1.07;;
2994;SDS011;35277;49.890;8.222;2023-04-15T13:45:15;1.10;;;0.80;;
2994;SDS011;35277;49.890;8.222;2023-04-15T13:47:45;1.10;;;0.60;;
2994;SDS011;35277;49.890;8.222;2023-04-15T13:50:12;1.93;;;1.50;;
2994;SDS011;35277;49.890;8.222;2023-04-15T13:52:40;2.93;;;1.43;;
2994;SDS011;35277;49.890;8.222;2023-04-15T13:55:08;1.00;;;0.50;;
2994;SDS011;35277;49.890;8.222;2023-04-15T13:57:49;3.33;;;1.80;;
2994;SDS011;35277;49.890;8.222;2023-04-15T14:00:17;2.17;;;0.80;;
2994;SDS011;35277;49.890;8.222;2023-04-15T14:02:46;1.53;;;1.37;;
2994;SDS011;35277;49.890;8.222;2023-04-15T14:05:14;1.63;;;0.67;;
2994;SDS011;35277;49.890;8.222;2023-04-15T14:07:42;8.33;;;2.63;;
2994;SDS011;35277;49.890;8.222;2023-04-15T14:10:10;1.53;;;1.23;;
2994;SDS011;35277;49.890;8.222;2023-04-15T14:12:38;1.10;;;0.80;;
2994;SDS011;35277;49.890;8.222;2023-04-15T14:15:06;1.00;;;0.50;;
2994;SDS011;35277;49.890;8.222;2023-04-15T14:17:34;1.00;;;0.50;;
2994;SDS011;35277;49.890;8.222;2023-04-15T14:20:04;3.90;;;1.00;;
2994;SDS011;35277;49.890;8.222;2023-04-15T14:22:34;1.30;;;0.50;;
2994;SDS011;35277;49.890;8.222;2023-04-15T14:25:01;2.10;;;1.03;;
2994;SDS011;35277;49.890;8.222;2023-04-15T14:27:29;4.77;;;1.80;;
2994;SDS011;35277;49.890;8.222;2023-04-15T14:29:57;7.00;;;1.03;;
2994;SDS011;35277;49.890;8.222;2023-04-15T14:32:25;4.77;;;1.60;;
2994;SDS011;35277;49.890;8.222;2023-04-15T14:34:53;1.20;;;0.90;;
2994;SDS011;35277;49.890;8.222;2023-04-15T14:37:22;1.10;;;0.83;;
2994;SDS011;35277;49.890;8.222;2023-04-15T14:39:49;1.90;;;1.00;;
2994;SDS011;35277;49.890;8.222;2023-04-15T14:42:17;1.13;;;0.77;;
2994;SDS011;35277;49.890;8.222;2023-04-15T14:44:45;1.17;;;0.53;;
2994;SDS011;35277;49.890;8.222;2023-04-15T14:47:12;2.13;;;1.77;;
2994;SDS011;35277;49.890;8.222;2023-04-15T14:49:41;1.70;;;1.30;;
2994;SDS011;35277;49.890;8.222;2023-04-15T14:52:09;1.10;;;0.67;;
2994;SDS011;35277;49.890;8.222;2023-04-15T14:54:38;1.13;;;0.93;;
2994;SDS011;35277;49.890;8.222;2023-04-15T14:57:05;1.00;;;0.40;;
2994;SDS011;35277;49.890;8.222;2023-04-15T14:59:34;1.00;;;0.50;;
2994;SDS011;35277;49.890;8.222;2023-04-15T15:02:01;1.00;;;0.63;;
2994;SDS011;35277;49.890;8.222;2023-04-15T15:04:29;1.87;;;0.80;;
2994;SDS011;35277;49.890;8.222;2023-04-15T15:06:58;1.00;;;0.60;;
2994;SDS011;35277;49.890;8.222;2023-04-15T15:09:27;1.00;;;0.40;;
2994;SDS011;35277;49.890;8.222;2023-04-15T15:11:56;1.20;;;1.10;;
2994;SDS011;35277;49.890;8.222;2023-04-15T15:14:24;2.70;;;1.00;;
2994;SDS011;35277;49.890;8.222;2023-04-15T15:16:52;1.10;;;0.70;;